PWSweather.com
Personal Weather Stations
Station Observations
GIRWX1
Presovsky Kraj, GiraltovceSK

Presovsky KrajGiraltovceSK

Lat: 49.118, Lon: 21.52

Elevation: 630

Station Type: wh1080

http://www.meteogiraltovce.wz.cz/

High Low Average
Temperature 65.9°F18.8°C 37.2°F2.9°C 50.1°F10.1°C
Dew Point 45.7°F7.6°C 34.8°F1.6°C 40.1°F4.5°C
Winds 9.8 mph 15.8 kmh Calm Calm 3.0 mph ESE4.8 kmh ESE
Wind Gusts 13.6 mph21.9 kmh -- 5.0 mph8.0 kmh
Humidity 99% 37% 73%
Pressure 30.35 in1027.8 mb 30.21 in1023.0 mb -
Precipitation 0.01 in0.3 mm - -
Hour Temp Dew Point Humidity Winds Wind Gusts Pressure Precip Precip Rate Daily Precip Total
12:00 AM 41.9°F5.5°C 39.4°F4.1°C 91% 2.7 mph NE4.3 kmh NE 3.8 mph6.1 kmh 30.35 in1027.8 mb 0.00 in0.0 mm 0.00 in0.0 mm 0.00 in0.0 mm
12:05 AM 41.7°F5.4°C 39.3°F4.1°C 91% 2.9 mph NE4.7 kmh NE 3.8 mph6.1 kmh 30.35 in1027.8 mb 0.00 in0.0 mm 0.00 in0.0 mm 0.00 in0.0 mm
12:10 AM 41.6°F5.3°C 39.2°F4.0°C 91% 1.9 mph NE3.1 kmh NE 3.1 mph5.0 kmh 30.35 in1027.8 mb 0.00 in0.0 mm 0.00 in0.0 mm 0.00 in0.0 mm
12:15 AM 41.5°F5.3°C 39.0°F3.9°C 91% 1.6 mph NE2.6 kmh NE 2.2 mph3.5 kmh 30.35 in1027.8 mb 0.00 in0.0 mm 0.00 in0.0 mm 0.00 in0.0 mm
12:20 AM 41.4°F5.2°C 38.9°F3.8°C 91% 2.0 mph NE3.2 kmh NE 3.1 mph5.0 kmh 30.35 in1027.8 mb 0.00 in0.0 mm 0.00 in0.0 mm 0.00 in0.0 mm
12:25 AM 41.3°F5.2°C 38.9°F3.8°C 91% 2.1 mph NE3.4 kmh NE 3.1 mph5.0 kmh 30.35 in1027.8 mb 0.00 in0.0 mm 0.00 in0.0 mm 0.00 in0.0 mm
12:30 AM 41.1°F5.1°C 38.7°F3.7°C 91% 2.1 mph NE3.4 kmh NE 3.1 mph5.0 kmh 30.34 in1027.4 mb 0.00 in0.0 mm 0.00 in0.0 mm 0.00 in0.0 mm
12:35 AM 40.9°F4.9°C 38.5°F3.6°C 91% 1.2 mph NE1.9 kmh NE 2.2 mph3.5 kmh 30.34 in1027.4 mb 0.00 in0.0 mm 0.00 in0.0 mm 0.00 in0.0 mm
12:40 AM 40.8°F4.9°C 38.3°F3.5°C 91% 0.4 mph NE0.6 kmh NE 1.6 mph2.6 kmh 30.35 in1027.8 mb 0.00 in0.0 mm 0.00 in0.0 mm 0.00 in0.0 mm
12:45 AM 40.5°F4.7°C 38.1°F3.4°C 91% 1.8 mph NE2.9 kmh NE 3.8 mph6.1 kmh 30.34 in1027.4 mb 0.00 in0.0 mm 0.00 in0.0 mm 0.00 in0.0 mm
12:50 AM 40.2°F4.6°C 37.8°F3.2°C 91% 2.5 mph NE4.0 kmh NE 3.8 mph6.1 kmh 30.34 in1027.4 mb 0.00 in0.0 mm 0.00 in0.0 mm 0.00 in0.0 mm
12:55 AM 40.0°F4.4°C 37.6°F3.1°C 91% 3.1 mph NE5.0 kmh NE 3.8 mph6.1 kmh 30.34 in1027.4 mb 0.00 in0.0 mm 0.00 in0.0 mm 0.00 in0.0 mm
01:00 AM 39.8°F4.3°C 37.4°F3.0°C 91% 3.0 mph NE4.8 kmh NE 3.8 mph6.1 kmh 30.34 in1027.4 mb 0.00 in0.0 mm 0.00 in0.0 mm 0.00 in0.0 mm
01:05 AM 39.7°F4.3°C 37.3°F2.9°C 91% 2.2 mph NE3.5 kmh NE 3.1 mph5.0 kmh 30.34 in1027.4 mb 0.00 in0.0 mm 0.00 in0.0 mm 0.00 in0.0 mm
01:10 AM 39.6°F4.2°C 37.2°F2.9°C 91% 1.7 mph NE2.7 kmh NE 3.1 mph5.0 kmh 30.35 in1027.8 mb 0.00 in0.0 mm 0.00 in0.0 mm 0.00 in0.0 mm
01:15 AM 39.3°F4.1°C 36.9°F2.7°C 91% 2.2 mph NE3.5 kmh NE 3.1 mph5.0 kmh 30.35 in1027.8 mb 0.00 in0.0 mm 0.00 in0.0 mm 0.00 in0.0 mm
01:20 AM 39.1°F3.9°C 36.7°F2.6°C 91% 2.2 mph NE3.5 kmh NE 3.1 mph5.0 kmh 30.35 in1027.8 mb 0.00 in0.0 mm 0.00 in0.0 mm 0.00 in0.0 mm
01:25 AM 39.0°F3.9°C 36.6°F2.6°C 91% 2.1 mph ENE3.4 kmh ENE 3.1 mph5.0 kmh 30.35 in1027.8 mb 0.00 in0.0 mm 0.00 in0.0 mm 0.00 in0.0 mm
01:30 AM 38.8°F3.8°C 36.4°F2.4°C 91% 2.2 mph NE3.5 kmh NE 3.1 mph5.0 kmh 30.35 in1027.8 mb 0.00 in0.0 mm 0.00 in0.0 mm 0.00 in0.0 mm
01:35 AM 38.7°F3.7°C 36.3°F2.4°C 91% 2.2 mph NE3.5 kmh NE 3.1 mph5.0 kmh 30.35 in1027.8 mb 0.00 in0.0 mm 0.00 in0.0 mm 0.00 in0.0 mm
01:40 AM 38.5°F3.6°C 36.1°F2.3°C 91% 1.6 mph NE2.6 kmh NE 2.2 mph3.5 kmh 30.35 in1027.8 mb 0.00 in0.0 mm 0.00 in0.0 mm 0.00 in0.0 mm
01:45 AM 38.3°F3.5°C 35.9°F2.2°C 91% 1.9 mph NE3.1 kmh NE 3.1 mph5.0 kmh 30.35 in1027.8 mb 0.00 in0.0 mm 0.00 in0.0 mm 0.00 in0.0 mm
01:50 AM 38.1°F3.4°C 35.8°F2.1°C 91% 2.5 mph NE4.0 kmh NE 3.8 mph6.1 kmh 30.35 in1027.8 mb 0.00 in0.0 mm 0.00 in0.0 mm 0.00 in0.0 mm
01:55 AM 38.0°F3.3°C 35.6°F2.0°C 91% 2.0 mph NNE3.2 kmh NNE 3.8 mph6.1 kmh 30.35 in1027.8 mb 0.00 in0.0 mm 0.00 in0.0 mm 0.00 in0.0 mm
02:00 AM 37.9°F3.3°C 35.5°F1.9°C 91% 1.7 mph NE2.7 kmh NE 3.1 mph5.0 kmh 30.35 in1027.8 mb 0.00 in0.0 mm 0.00 in0.0 mm 0.00 in0.0 mm
02:05 AM 37.8°F3.2°C 35.4°F1.9°C 91% 2.2 mph NE3.5 kmh NE 3.1 mph5.0 kmh 30.35 in1027.8 mb 0.00 in0.0 mm 0.00 in0.0 mm 0.00 in0.0 mm
02:10 AM 37.7°F3.2°C 35.3°F1.8°C 91% 2.0 mph NE3.2 kmh NE 3.1 mph5.0 kmh 30.35 in1027.8 mb 0.00 in0.0 mm 0.00 in0.0 mm 0.00 in0.0 mm
02:15 AM 37.6°F3.1°C 35.2°F1.8°C 91% 1.6 mph NE2.6 kmh NE 2.2 mph3.5 kmh 30.35 in1027.8 mb 0.00 in0.0 mm 0.00 in0.0 mm 0.00 in0.0 mm
02:20 AM 37.5°F3.1°C 35.1°F1.7°C 91% 2.2 mph NE3.5 kmh NE 3.1 mph5.0 kmh 30.35 in1027.8 mb 0.00 in0.0 mm 0.00 in0.0 mm 0.00 in0.0 mm
02:25 AM 37.4°F3.0°C 35.0°F1.7°C 91% 2.2 mph NE3.5 kmh NE 3.1 mph5.0 kmh 30.35 in1027.8 mb 0.00 in0.0 mm 0.00 in0.0 mm 0.00 in0.0 mm
02:30 AM 37.2°F2.9°C 34.8°F1.6°C 91% 2.0 mph NE3.2 kmh NE 3.1 mph5.0 kmh 30.35 in1027.8 mb 0.00 in0.0 mm 0.00 in0.0 mm 0.00 in0.0 mm
02:35 AM 37.2°F2.9°C 34.8°F1.6°C 91% 0.8 mph NE1.3 kmh NE 2.2 mph3.5 kmh 30.35 in1027.8 mb 0.00 in0.0 mm 0.00 in0.0 mm 0.00 in0.0 mm
02:40 AM 37.4°F3.0°C 35.0°F1.7°C 91% 1.0 mph NNE1.6 kmh NNE 2.2 mph3.5 kmh 30.35 in1027.8 mb 0.00 in0.0 mm 0.00 in0.0 mm 0.00 in0.0 mm
02:45 AM 37.4°F3.0°C 35.0°F1.7°C 91% 1.6 mph NE2.6 kmh NE 2.2 mph3.5 kmh 30.35 in1027.8 mb 0.00 in0.0 mm 0.00 in0.0 mm 0.00 in0.0 mm
02:50 AM 37.6°F3.1°C 35.3°F1.8°C 91% 2.0 mph NE3.2 kmh NE 3.1 mph5.0 kmh 30.35 in1027.8 mb 0.00 in0.0 mm 0.00 in0.0 mm 0.00 in0.0 mm
02:55 AM 37.7°F3.2°C 35.6°F2.0°C 92% 1.9 mph NE3.1 kmh NE 3.1 mph5.0 kmh 30.35 in1027.8 mb 0.00 in0.0 mm 0.00 in0.0 mm 0.00 in0.0 mm
03:00 AM 38.0°F3.3°C 35.9°F2.2°C 92% 1.1 mph NE1.8 kmh NE 2.2 mph3.5 kmh 30.34 in1027.4 mb 0.00 in0.0 mm 0.00 in0.0 mm 0.00 in0.0 mm
03:05 AM 38.1°F3.4°C 36.0°F2.2°C 92% Calm Calm 0.7 mph1.1 kmh 30.34 in1027.4 mb 0.00 in0.0 mm 0.00 in0.0 mm 0.00 in0.0 mm
03:10 AM 38.2°F3.4°C 36.3°F2.4°C 93% 0.8 mph NNE1.3 kmh NNE 2.2 mph3.5 kmh 30.34 in1027.4 mb 0.00 in0.0 mm 0.00 in0.0 mm 0.00 in0.0 mm
03:15 AM 38.3°F3.5°C 36.5°F2.5°C 93% 1.2 mph ENE1.9 kmh ENE 2.2 mph3.5 kmh 30.34 in1027.4 mb 0.00 in0.0 mm 0.00 in0.0 mm 0.00 in0.0 mm
03:20 AM 38.4°F3.6°C 36.6°F2.6°C 93% 0.8 mph E1.3 kmh E 2.2 mph3.5 kmh 30.34 in1027.4 mb 0.00 in0.0 mm 0.00 in0.0 mm 0.00 in0.0 mm
03:25 AM 38.5°F3.6°C 36.6°F2.6°C 93% 2.0 mph E3.2 kmh E 3.1 mph5.0 kmh 30.34 in1027.4 mb 0.00 in0.0 mm 0.00 in0.0 mm 0.00 in0.0 mm
03:30 AM 38.5°F3.6°C 36.7°F2.6°C 93% 0.3 mph E0.5 kmh E 2.2 mph3.5 kmh 30.34 in1027.4 mb 0.00 in0.0 mm 0.00 in0.0 mm 0.00 in0.0 mm
03:35 AM 38.7°F3.7°C 36.9°F2.7°C 93% 0.3 mph ENE0.5 kmh ENE 1.6 mph2.6 kmh 30.33 in1027.1 mb 0.00 in0.0 mm 0.00 in0.0 mm 0.00 in0.0 mm
03:40 AM 38.7°F3.7°C 37.1°F2.8°C 94% 0.1 mph NE0.2 kmh NE 1.6 mph2.6 kmh 30.34 in1027.4 mb 0.00 in0.0 mm 0.00 in0.0 mm 0.00 in0.0 mm
03:45 AM 38.8°F3.8°C 37.3°F2.9°C 94% 1.9 mph NE3.1 kmh NE 3.8 mph6.1 kmh 30.34 in1027.4 mb 0.00 in0.0 mm 0.00 in0.0 mm 0.00 in0.0 mm
03:50 AM 39.0°F3.9°C 37.4°F3.0°C 94% 2.2 mph NE3.5 kmh NE 3.8 mph6.1 kmh 30.34 in1027.4 mb 0.00 in0.0 mm 0.00 in0.0 mm 0.00 in0.0 mm
03:55 AM 39.1°F3.9°C 37.5°F3.1°C 94% 0.2 mph W0.3 kmh W 1.6 mph2.6 kmh 30.34 in1027.4 mb 0.00 in0.0 mm 0.00 in0.0 mm 0.00 in0.0 mm
04:00 AM 39.2°F4.0°C 37.6°F3.1°C 94% 0.5 mph NE0.8 kmh NE 2.2 mph3.5 kmh 30.34 in1027.4 mb 0.00 in0.0 mm 0.00 in0.0 mm 0.00 in0.0 mm
04:05 AM 39.3°F4.1°C 37.7°F3.2°C 94% 1.6 mph E2.6 kmh E 2.2 mph3.5 kmh 30.34 in1027.4 mb 0.00 in0.0 mm 0.00 in0.0 mm 0.00 in0.0 mm
04:10 AM 39.4°F4.1°C 38.1°F3.4°C 95% 2.2 mph ENE3.5 kmh ENE 3.1 mph5.0 kmh 30.34 in1027.4 mb 0.00 in0.0 mm 0.00 in0.0 mm 0.00 in0.0 mm
04:15 AM 39.4°F4.1°C 38.1°F3.4°C 95% 1.3 mph NE2.1 kmh NE 2.2 mph3.5 kmh 30.34 in1027.4 mb 0.00 in0.0 mm 0.00 in0.0 mm 0.00 in0.0 mm
04:20 AM 39.6°F4.2°C 38.2°F3.4°C 95% 0.2 mph NW0.3 kmh NW 1.6 mph2.6 kmh 30.34 in1027.4 mb 0.00 in0.0 mm 0.00 in0.0 mm 0.00 in0.0 mm
04:25 AM 39.6°F4.2°C 38.3°F3.5°C 95% 0.4 mph ENE0.6 kmh ENE 1.6 mph2.6 kmh 30.34 in1027.4 mb 0.00 in0.0 mm 0.00 in0.0 mm 0.00 in0.0 mm
04:30 AM 39.7°F4.3°C 38.4°F3.6°C 95% Calm Calm 0.7 mph1.1 kmh 30.34 in1027.4 mb 0.00 in0.0 mm 0.00 in0.0 mm 0.00 in0.0 mm
04:35 AM 39.7°F4.3°C 38.4°F3.6°C 95% Calm Calm 0.7 mph1.1 kmh 30.34 in1027.4 mb 0.00 in0.0 mm 0.00 in0.0 mm 0.00 in0.0 mm
04:40 AM 39.9°F4.4°C 38.6°F3.7°C 95% Calm Calm -- 30.35 in1027.8 mb 0.00 in0.0 mm 0.00 in0.0 mm 0.00 in0.0 mm
04:45 AM 39.9°F4.4°C 38.6°F3.7°C 95% 0.2 mph SE0.3 kmh SE 1.6 mph2.6 kmh 30.35 in1027.8 mb 0.00 in0.0 mm 0.00 in0.0 mm 0.00 in0.0 mm
04:50 AM 40.0°F4.4°C 38.8°F3.8°C 96% 0.5 mph E0.8 kmh E 1.6 mph2.6 kmh 30.35 in1027.8 mb 0.00 in0.0 mm 0.00 in0.0 mm 0.00 in0.0 mm
04:55 AM 40.1°F4.5°C 39.1°F3.9°C 96% Calm Calm -- 30.35 in1027.8 mb 0.00 in0.0 mm 0.00 in0.0 mm 0.00 in0.0 mm
05:00 AM 40.1°F4.5°C 39.1°F3.9°C 96% 0.3 mph W0.5 kmh W 1.6 mph2.6 kmh 30.35 in1027.8 mb 0.00 in0.0 mm 0.00 in0.0 mm 0.00 in0.0 mm
05:05 AM 40.1°F4.5°C 39.1°F3.9°C 96% Calm Calm -- 30.35 in1027.8 mb 0.00 in0.0 mm 0.00 in0.0 mm 0.00 in0.0 mm
05:10 AM 40.2°F4.6°C 39.2°F4.0°C 96% Calm Calm -- 30.35 in1027.8 mb 0.00 in0.0 mm 0.00 in0.0 mm 0.00 in0.0 mm
05:15 AM 40.3°F4.6°C 39.2°F4.0°C 96% 0.3 mph 0.5 kmh 1.6 mph2.6 kmh 30.35 in1027.8 mb 0.00 in0.0 mm 0.00 in0.0 mm 0.00 in0.0 mm
05:20 AM 40.5°F4.7°C 39.4°F4.1°C 96% 0.1 mph NW0.2 kmh NW 0.7 mph1.1 kmh 30.35 in1027.8 mb 0.00 in0.0 mm 0.00 in0.0 mm 0.00 in0.0 mm
05:25 AM 40.5°F4.7°C 39.4°F4.1°C 96% 0.6 mph NNE1.0 kmh NNE 1.6 mph2.6 kmh 30.35 in1027.8 mb 0.00 in0.0 mm 0.00 in0.0 mm 0.00 in0.0 mm
05:30 AM 40.6°F4.8°C 39.5°F4.2°C 96% 1.4 mph NE2.3 kmh NE 2.2 mph3.5 kmh 30.34 in1027.4 mb 0.00 in0.0 mm 0.00 in0.0 mm 0.00 in0.0 mm
05:35 AM 40.7°F4.8°C 39.7°F4.3°C 96% 2.2 mph NNE3.5 kmh NNE 3.1 mph5.0 kmh 30.35 in1027.8 mb 0.00 in0.0 mm 0.00 in0.0 mm 0.00 in0.0 mm
05:40 AM 40.8°F4.9°C 40.0°F4.4°C 97% 1.6 mph NE2.6 kmh NE 3.1 mph5.0 kmh 30.35 in1027.8 mb 0.00 in0.0 mm 0.00 in0.0 mm 0.00 in0.0 mm
05:45 AM 40.8°F4.9°C 40.0°F4.4°C 97% 1.0 mph NE1.6 kmh NE 2.2 mph3.5 kmh 30.35 in1027.8 mb 0.00 in0.0 mm 0.00 in0.0 mm 0.00 in0.0 mm
05:50 AM 40.9°F4.9°C 40.1°F4.5°C 97% 0.3 mph NE0.5 kmh NE 1.6 mph2.6 kmh 30.35 in1027.8 mb 0.00 in0.0 mm 0.00 in0.0 mm 0.00 in0.0 mm
05:55 AM 41.0°F5.0°C 40.2°F4.6°C 97% 0.7 mph NE1.1 kmh NE 1.6 mph2.6 kmh 30.35 in1027.8 mb 0.00 in0.0 mm 0.00 in0.0 mm 0.00 in0.0 mm
06:00 AM 41.0°F5.0°C 40.2°F4.6°C 97% 0.4 mph NE0.6 kmh NE 1.6 mph2.6 kmh 30.35 in1027.8 mb 0.00 in0.0 mm 0.00 in0.0 mm 0.00 in0.0 mm
06:05 AM 41.1°F5.1°C 40.3°F4.6°C 97% 0.5 mph NE0.8 kmh NE 2.2 mph3.5 kmh 30.35 in1027.8 mb 0.00 in0.0 mm 0.00 in0.0 mm 0.00 in0.0 mm
06:10 AM 41.2°F5.1°C 40.4°F4.7°C 97% 0.1 mph NE0.2 kmh NE 1.6 mph2.6 kmh 30.35 in1027.8 mb 0.00 in0.0 mm 0.00 in0.0 mm 0.00 in0.0 mm
06:15 AM 41.4°F5.2°C 40.7°F4.8°C 97% 0.3 mph S0.5 kmh S 2.2 mph3.5 kmh 30.35 in1027.8 mb 0.00 in0.0 mm 0.00 in0.0 mm 0.00 in0.0 mm
06:20 AM 41.5°F5.3°C 41.0°F5.0°C 98% 0.8 mph SSW1.3 kmh SSW 2.2 mph3.5 kmh 30.35 in1027.8 mb 0.00 in0.0 mm 0.00 in0.0 mm 0.00 in0.0 mm
06:25 AM 41.7°F5.4°C 41.1°F5.1°C 98% Calm Calm 0.7 mph1.1 kmh 30.35 in1027.8 mb 0.00 in0.0 mm 0.00 in0.0 mm 0.00 in0.0 mm
06:30 AM 41.8°F5.4°C 41.2°F5.1°C 98% Calm Calm -- 30.35 in1027.8 mb 0.00 in0.0 mm 0.00 in0.0 mm 0.00 in0.0 mm
06:35 AM 42.0°F5.6°C 41.4°F5.2°C 98% 0.7 mph N1.1 kmh N 1.6 mph2.6 kmh 30.35 in1027.8 mb 0.00 in0.0 mm 0.00 in0.0 mm 0.00 in0.0 mm
06:40 AM 42.3°F5.7°C 41.9°F5.5°C 98% 0.7 mph N1.1 kmh N 2.2 mph3.5 kmh 30.35 in1027.8 mb 0.00 in0.0 mm 0.00 in0.0 mm 0.00 in0.0 mm
06:45 AM 43.0°F6.1°C 42.8°F6.0°C 99% 1.1 mph NE1.8 kmh NE 2.2 mph3.5 kmh 30.34 in1027.4 mb 0.00 in0.0 mm 0.00 in0.0 mm 0.00 in0.0 mm
06:50 AM 43.6°F6.4°C 43.3°F6.3°C 99% 2.0 mph ENE3.2 kmh ENE 3.8 mph6.1 kmh 30.34 in1027.4 mb 0.00 in0.0 mm 0.00 in0.0 mm 0.00 in0.0 mm
06:55 AM 44.2°F6.8°C 44.0°F6.7°C 99% 3.1 mph ENE5.0 kmh ENE 3.8 mph6.1 kmh 30.34 in1027.4 mb 0.00 in0.0 mm 0.00 in0.0 mm 0.00 in0.0 mm
07:00 AM 44.8°F7.1°C 44.6°F7.0°C 99% 2.7 mph NE4.3 kmh NE 3.8 mph6.1 kmh 30.34 in1027.4 mb 0.00 in0.0 mm 0.00 in0.0 mm 0.00 in0.0 mm
07:05 AM 45.0°F7.2°C 44.7°F7.1°C 99% 3.1 mph E5.0 kmh E 3.8 mph6.1 kmh 30.34 in1027.4 mb 0.00 in0.0 mm 0.00 in0.0 mm 0.00 in0.0 mm
07:10 AM 45.5°F7.5°C 45.0°F7.2°C 98% 3.2 mph ENE5.1 kmh ENE 5.4 mph8.7 kmh 30.34 in1027.4 mb 0.00 in0.0 mm 0.00 in0.0 mm 0.00 in0.0 mm
07:15 AM 46.3°F7.9°C 45.1°F7.3°C 96% 1.4 mph ENE2.3 kmh ENE 3.1 mph5.0 kmh 30.34 in1027.4 mb 0.00 in0.0 mm 0.00 in0.0 mm 0.00 in0.0 mm
07:20 AM 46.9°F8.3°C 45.5°F7.5°C 95% 1.8 mph NNE2.9 kmh NNE 3.1 mph5.0 kmh 30.34 in1027.4 mb 0.00 in0.0 mm 0.00 in0.0 mm 0.00 in0.0 mm
07:25 AM 47.4°F8.6°C 45.3°F7.4°C 92% 1.6 mph E2.6 kmh E 3.1 mph5.0 kmh 30.34 in1027.4 mb 0.00 in0.0 mm 0.00 in0.0 mm 0.00 in0.0 mm
07:30 AM 47.9°F8.8°C 45.3°F7.4°C 91% 1.3 mph ENE2.1 kmh ENE 2.2 mph3.5 kmh 30.34 in1027.4 mb 0.00 in0.0 mm 0.00 in0.0 mm 0.00 in0.0 mm
07:35 AM 48.6°F9.2°C 45.7°F7.6°C 90% 1.2 mph SE1.9 kmh SE 2.2 mph3.5 kmh 30.34 in1027.4 mb 0.00 in0.0 mm 0.00 in0.0 mm 0.00 in0.0 mm
07:40 AM 48.7°F9.3°C 44.8°F7.1°C 86% 1.2 mph SE1.9 kmh SE 2.2 mph3.5 kmh 30.34 in1027.4 mb 0.00 in0.0 mm 0.00 in0.0 mm 0.00 in0.0 mm
07:45 AM 49.1°F9.5°C 44.0°F6.7°C 83% 1.3 mph SSE2.1 kmh SSE 2.2 mph3.5 kmh 30.34 in1027.4 mb 0.00 in0.0 mm 0.00 in0.0 mm 0.00 in0.0 mm
07:50 AM 49.5°F9.7°C 43.2°F6.2°C 79% 1.5 mph S2.4 kmh S 3.1 mph5.0 kmh 30.34 in1027.4 mb 0.00 in0.0 mm 0.00 in0.0 mm 0.00 in0.0 mm
07:55 AM 50.1°F10.1°C 42.9°F6.1°C 76% 1.7 mph SSE2.7 kmh SSE 3.1 mph5.0 kmh 30.34 in1027.4 mb 0.00 in0.0 mm 0.00 in0.0 mm 0.00 in0.0 mm
08:00 AM 50.4°F10.2°C 42.5°F5.8°C 74% 1.9 mph S3.1 kmh S 3.1 mph5.0 kmh 30.34 in1027.4 mb 0.00 in0.0 mm 0.00 in0.0 mm 0.00 in0.0 mm
08:05 AM 50.7°F10.4°C 42.7°F5.9°C 74% 2.2 mph S3.5 kmh S 3.1 mph5.0 kmh 30.34 in1027.4 mb 0.00 in0.0 mm 0.00 in0.0 mm 0.00 in0.0 mm
08:10 AM 51.8°F11.0°C 43.0°F6.1°C 72% 2.5 mph S4.0 kmh S 4.5 mph7.2 kmh 30.34 in1027.4 mb 0.00 in0.0 mm 0.00 in0.0 mm 0.00 in0.0 mm
08:15 AM 52.4°F11.3°C 43.3°F6.3°C 71% 2.9 mph S4.7 kmh S 4.5 mph7.2 kmh 30.34 in1027.4 mb 0.00 in0.0 mm 0.00 in0.0 mm 0.00 in0.0 mm
08:20 AM 53.0°F11.7°C 43.7°F6.5°C 71% 3.0 mph SSE4.8 kmh SSE 4.5 mph7.2 kmh 30.34 in1027.4 mb 0.00 in0.0 mm 0.00 in0.0 mm 0.00 in0.0 mm
08:25 AM 53.2°F11.8°C 43.6°F6.4°C 70% 2.7 mph SW4.3 kmh SW 4.5 mph7.2 kmh 30.34 in1027.4 mb 0.00 in0.0 mm 0.00 in0.0 mm 0.00 in0.0 mm
08:30 AM 53.5°F11.9°C 43.0°F6.1°C 67% 2.6 mph SSW4.2 kmh SSW 4.5 mph7.2 kmh 30.34 in1027.4 mb 0.00 in0.0 mm 0.00 in0.0 mm 0.00 in0.0 mm
08:35 AM 53.7°F12.1°C 42.8°F6.0°C 66% 3.2 mph SW5.1 kmh SW 5.4 mph8.7 kmh 30.34 in1027.4 mb 0.00 in0.0 mm 0.00 in0.0 mm 0.00 in0.0 mm
08:40 AM 54.3°F12.4°C 43.0°F6.1°C 66% 3.2 mph WSW5.1 kmh WSW 5.4 mph8.7 kmh 30.34 in1027.4 mb 0.00 in0.0 mm 0.00 in0.0 mm 0.00 in0.0 mm
08:45 AM 54.9°F12.7°C 42.6°F5.9°C 63% 3.6 mph SW5.8 kmh SW 6.0 mph9.7 kmh 30.34 in1027.4 mb 0.00 in0.0 mm 0.00 in0.0 mm 0.00 in0.0 mm
08:50 AM 55.1°F12.8°C 41.6°F5.3°C 60% 3.0 mph SSE4.8 kmh SSE 4.5 mph7.2 kmh 30.34 in1027.4 mb 0.00 in0.0 mm 0.00 in0.0 mm 0.00 in0.0 mm
08:55 AM 55.6°F13.1°C 42.3°F5.7°C 61% 3.0 mph SSE4.8 kmh SSE 5.4 mph8.7 kmh 30.33 in1027.1 mb 0.00 in0.0 mm 0.00 in0.0 mm 0.00 in0.0 mm
09:00 AM 55.7°F13.2°C 41.7°F5.4°C 59% 1.9 mph ENE3.1 kmh ENE 3.8 mph6.1 kmh 30.33 in1027.1 mb 0.00 in0.0 mm 0.00 in0.0 mm 0.00 in0.0 mm
09:05 AM 55.9°F13.3°C 42.3°F5.7°C 60% 2.2 mph E3.5 kmh E 3.8 mph6.1 kmh 30.33 in1027.1 mb 0.00 in0.0 mm 0.00 in0.0 mm 0.00 in0.0 mm
09:10 AM 56.8°F13.8°C 42.9°F6.1°C 60% 2.9 mph SE4.7 kmh SE 6.0 mph9.7 kmh 30.33 in1027.1 mb 0.00 in0.0 mm 0.00 in0.0 mm 0.00 in0.0 mm
09:15 AM 57.4°F14.1°C 43.3°F6.3°C 59% 2.6 mph SE4.2 kmh SE 5.4 mph8.7 kmh 30.32 in1026.8 mb 0.00 in0.0 mm 0.00 in0.0 mm 0.00 in0.0 mm
09:20 AM 57.7°F14.3°C 42.8°F6.0°C 58% 2.4 mph SW3.9 kmh SW 3.8 mph6.1 kmh 30.32 in1026.8 mb 0.00 in0.0 mm 0.00 in0.0 mm 0.00 in0.0 mm
09:25 AM 58.0°F14.4°C 41.2°F5.1°C 53% 3.5 mph SSW5.6 kmh SSW 6.0 mph9.7 kmh 30.32 in1026.8 mb 0.00 in0.0 mm 0.00 in0.0 mm 0.00 in0.0 mm
09:30 AM 58.3°F14.6°C 40.4°F4.7°C 51% 5.4 mph S8.7 kmh S 8.3 mph13.4 kmh 30.32 in1026.8 mb 0.00 in0.0 mm 0.00 in0.0 mm 0.00 in0.0 mm
09:35 AM 58.5°F14.7°C 40.4°F4.7°C 51% 5.2 mph SW8.4 kmh SW 8.3 mph13.4 kmh 30.32 in1026.8 mb 0.00 in0.0 mm 0.00 in0.0 mm 0.00 in0.0 mm
09:40 AM 59.2°F15.1°C 41.0°F5.0°C 51% 3.9 mph SW6.3 kmh SW 6.0 mph9.7 kmh 30.32 in1026.8 mb 0.00 in0.0 mm 0.00 in0.0 mm 0.00 in0.0 mm
09:45 AM 59.5°F15.3°C 41.2°F5.1°C 51% 3.6 mph SW5.8 kmh SW 5.4 mph8.7 kmh 30.32 in1026.8 mb 0.00 in0.0 mm 0.00 in0.0 mm 0.00 in0.0 mm
09:50 AM 59.8°F15.4°C 41.5°F5.3°C 51% 3.2 mph SSW5.1 kmh SSW 4.5 mph7.2 kmh 30.32 in1026.8 mb 0.00 in0.0 mm 0.00 in0.0 mm 0.00 in0.0 mm
09:55 AM 60.0°F15.6°C 41.8°F5.4°C 51% 4.7 mph SSW7.6 kmh SSW 7.6 mph12.2 kmh 30.32 in1026.8 mb 0.00 in0.0 mm 0.00 in0.0 mm 0.00 in0.0 mm
10:00 AM 59.9°F15.5°C 41.8°F5.4°C 51% 5.6 mph S9.0 kmh S 7.6 mph12.2 kmh 30.32 in1026.8 mb 0.00 in0.0 mm 0.00 in0.0 mm 0.00 in0.0 mm
10:05 AM 59.8°F15.4°C 41.7°F5.4°C 51% 5.7 mph SE9.2 kmh SE 8.3 mph13.4 kmh 30.32 in1026.8 mb 0.00 in0.0 mm 0.00 in0.0 mm 0.00 in0.0 mm
10:10 AM 59.7°F15.4°C 42.0°F5.6°C 52% 4.6 mph SSE7.4 kmh SSE 7.6 mph12.2 kmh 30.31 in1026.4 mb 0.00 in0.0 mm 0.00 in0.0 mm 0.00 in0.0 mm
10:15 AM 59.4°F15.2°C 41.6°F5.3°C 52% 5.4 mph S8.7 kmh S 11.4 mph18.3 kmh 30.32 in1026.8 mb 0.01 in0.3 mm 0.12 in3.0 mm 0.01 in0.3 mm
10:20 AM 59.7°F15.4°C 42.6°F5.9°C 53% 5.0 mph SSW8.0 kmh SSW 9.2 mph14.8 kmh 30.31 in1026.4 mb 0.01 in0.3 mm 0.00 in0.0 mm 0.01 in0.3 mm
10:25 AM 60.1°F15.6°C 42.5°F5.8°C 52% 5.3 mph SSW8.5 kmh SSW 7.6 mph12.2 kmh 30.31 in1026.4 mb 0.01 in0.3 mm 0.00 in0.0 mm 0.01 in0.3 mm
10:30 AM 60.3°F15.7°C 42.6°F5.9°C 52% 4.2 mph S6.8 kmh S 8.3 mph13.4 kmh 30.31 in1026.4 mb 0.01 in0.3 mm 0.00 in0.0 mm 0.01 in0.3 mm
10:35 AM 60.2°F15.7°C 42.4°F5.8°C 52% 6.5 mph S10.5 kmh S 9.2 mph14.8 kmh 30.31 in1026.4 mb 0.01 in0.3 mm 0.00 in0.0 mm 0.01 in0.3 mm
10:40 AM 60.4°F15.8°C 43.4°F6.3°C 53% 7.2 mph SSE11.6 kmh SSE 9.8 mph15.8 kmh 30.31 in1026.4 mb 0.01 in0.3 mm 0.00 in0.0 mm 0.01 in0.3 mm
10:45 AM 60.8°F16.0°C 43.0°F6.1°C 52% 6.8 mph S10.9 kmh S 10.7 mph17.2 kmh 30.31 in1026.4 mb 0.01 in0.3 mm 0.00 in0.0 mm 0.01 in0.3 mm
10:50 AM 61.4°F16.3°C 43.6°F6.4°C 52% 5.6 mph SSW9.0 kmh SSW 9.8 mph15.8 kmh 30.31 in1026.4 mb 0.01 in0.3 mm 0.00 in0.0 mm 0.01 in0.3 mm
10:55 AM 61.4°F16.3°C 42.9°F6.1°C 51% 7.5 mph S12.1 kmh S 9.8 mph15.8 kmh 30.30 in1026.1 mb 0.01 in0.3 mm 0.00 in0.0 mm 0.01 in0.3 mm
11:00 AM 61.1°F16.2°C 42.6°F5.9°C 51% 5.6 mph S9.0 kmh S 8.3 mph13.4 kmh 30.31 in1026.4 mb 0.01 in0.3 mm 0.00 in0.0 mm 0.01 in0.3 mm
11:05 AM 61.5°F16.4°C 43.2°F6.2°C 51% 3.1 mph S5.0 kmh S 4.5 mph7.2 kmh 30.30 in1026.1 mb 0.01 in0.3 mm 0.00 in0.0 mm 0.01 in0.3 mm
11:10 AM 61.9°F16.6°C 43.1°F6.2°C 50% 6.9 mph S11.1 kmh S 11.4 mph18.3 kmh 30.30 in1026.1 mb 0.01 in0.3 mm 0.00 in0.0 mm 0.01 in0.3 mm
11:15 AM 61.8°F16.6°C 42.4°F5.8°C 49% 8.0 mph S12.9 kmh S 13.0 mph20.9 kmh 30.30 in1026.1 mb 0.00 in0.0 mm 0.00 in0.0 mm 0.01 in0.3 mm
11:20 AM 61.7°F16.5°C 42.3°F5.7°C 49% 9.8 mph S15.8 kmh S 13.6 mph21.9 kmh 30.30 in1026.1 mb 0.00 in0.0 mm 0.00 in0.0 mm 0.01 in0.3 mm
11:25 AM 61.7°F16.5°C 42.4°F5.8°C 49% 8.8 mph S14.2 kmh S 12.1 mph19.5 kmh 30.30 in1026.1 mb 0.00 in0.0 mm 0.00 in0.0 mm 0.01 in0.3 mm
11:30 AM 62.2°F16.8°C 43.1°F6.2°C 50% 4.6 mph S7.4 kmh S 8.3 mph13.4 kmh 30.30 in1026.1 mb 0.00 in0.0 mm 0.00 in0.0 mm 0.01 in0.3 mm
11:35 AM 62.4°F16.9°C 41.9°F5.5°C 47% 8.2 mph S13.2 kmh S 12.1 mph19.5 kmh 30.30 in1026.1 mb 0.00 in0.0 mm 0.00 in0.0 mm 0.01 in0.3 mm
11:40 AM 62.5°F16.9°C 42.6°F5.9°C 48% 7.3 mph S11.7 kmh S 11.4 mph18.3 kmh 30.29 in1025.7 mb 0.00 in0.0 mm 0.00 in0.0 mm 0.01 in0.3 mm
11:45 AM 63.1°F17.3°C 43.8°F6.6°C 49% 7.3 mph SSE11.7 kmh SSE 9.8 mph15.8 kmh 30.29 in1025.7 mb 0.00 in0.0 mm 0.00 in0.0 mm 0.01 in0.3 mm
11:50 AM 63.0°F17.2°C 44.0°F6.7°C 50% 4.5 mph SE7.2 kmh SE 6.0 mph9.7 kmh 30.29 in1025.7 mb 0.00 in0.0 mm 0.00 in0.0 mm 0.01 in0.3 mm
11:55 AM 63.7°F17.6°C 44.2°F6.8°C 49% 8.3 mph S13.4 kmh S 9.8 mph15.8 kmh 30.29 in1025.7 mb 0.00 in0.0 mm 0.00 in0.0 mm 0.01 in0.3 mm
12:00 PM 63.5°F17.5°C 43.2°F6.2°C 48% 6.8 mph S10.9 kmh S 9.8 mph15.8 kmh 30.29 in1025.7 mb 0.00 in0.0 mm 0.00 in0.0 mm 0.01 in0.3 mm
12:05 PM 63.4°F17.4°C 42.4°F5.8°C 46% 6.1 mph SSE9.8 kmh SSE 9.2 mph14.8 kmh 30.29 in1025.7 mb 0.00 in0.0 mm 0.00 in0.0 mm 0.01 in0.3 mm
12:10 PM 63.6°F17.6°C 42.5°F5.8°C 46% 6.6 mph SSW10.6 kmh SSW 10.7 mph17.2 kmh 30.29 in1025.7 mb 0.00 in0.0 mm 0.00 in0.0 mm 0.01 in0.3 mm
12:15 PM 63.9°F17.7°C 40.9°F4.9°C 43% 5.1 mph S8.2 kmh S 7.6 mph12.2 kmh 30.29 in1025.7 mb 0.00 in0.0 mm 0.00 in0.0 mm 0.01 in0.3 mm
12:20 PM 64.0°F17.8°C 40.8°F4.9°C 43% 5.5 mph SSW8.9 kmh SSW 8.3 mph13.4 kmh 30.29 in1025.7 mb 0.00 in0.0 mm 0.00 in0.0 mm 0.01 in0.3 mm
12:25 PM 64.0°F17.8°C 40.0°F4.4°C 41% 5.8 mph S9.3 kmh S 8.3 mph13.4 kmh 30.28 in1025.4 mb 0.00 in0.0 mm 0.00 in0.0 mm 0.01 in0.3 mm
12:30 PM 63.8°F17.7°C 40.4°F4.7°C 42% 6.4 mph S10.3 kmh S 9.2 mph14.8 kmh 30.28 in1025.4 mb 0.00 in0.0 mm 0.00 in0.0 mm 0.01 in0.3 mm
12:35 PM 63.7°F17.6°C 41.5°F5.3°C 44% 5.0 mph SSE8.0 kmh SSE 8.3 mph13.4 kmh 30.28 in1025.4 mb 0.00 in0.0 mm 0.00 in0.0 mm 0.01 in0.3 mm
12:40 PM 64.2°F17.9°C 42.0°F5.6°C 44% 5.3 mph SSE8.5 kmh SSE 9.2 mph14.8 kmh 30.28 in1025.4 mb 0.00 in0.0 mm 0.00 in0.0 mm 0.01 in0.3 mm
12:45 PM 64.2°F17.9°C 40.4°F4.7°C 42% 5.5 mph S8.9 kmh S 8.3 mph13.4 kmh 30.28 in1025.4 mb 0.00 in0.0 mm 0.00 in0.0 mm 0.01 in0.3 mm
12:50 PM 64.4°F18.0°C 40.8°F4.9°C 42% 1.9 mph WNW3.1 kmh WNW 3.8 mph6.1 kmh 30.28 in1025.4 mb 0.00 in0.0 mm 0.00 in0.0 mm 0.01 in0.3 mm
12:55 PM 64.8°F18.2°C 40.7°F4.8°C 41% 4.7 mph S7.6 kmh S 6.9 mph11.1 kmh 30.28 in1025.4 mb 0.00 in0.0 mm 0.00 in0.0 mm 0.01 in0.3 mm
01:00 PM 64.2°F17.9°C 39.7°F4.3°C 40% 2.8 mph S4.5 kmh S 4.5 mph7.2 kmh 30.28 in1025.4 mb 0.00 in0.0 mm 0.00 in0.0 mm 0.01 in0.3 mm
01:05 PM 64.6°F18.1°C 40.5°F4.7°C 41% 2.7 mph S4.3 kmh S 6.0 mph9.7 kmh 30.27 in1025.1 mb 0.00 in0.0 mm 0.00 in0.0 mm 0.01 in0.3 mm
01:10 PM 65.1°F18.4°C 40.6°F4.8°C 41% 3.5 mph WSW5.6 kmh WSW 6.0 mph9.7 kmh 30.27 in1025.1 mb 0.00 in0.0 mm 0.00 in0.0 mm 0.01 in0.3 mm
01:15 PM 65.9°F18.8°C 40.6°F4.8°C 40% 7.2 mph WSW11.6 kmh WSW 12.1 mph19.5 kmh 30.27 in1025.1 mb 0.00 in0.0 mm 0.00 in0.0 mm 0.01 in0.3 mm
01:20 PM 65.5°F18.6°C 38.7°F3.7°C 37% 4.0 mph SSW6.4 kmh SSW 7.6 mph12.2 kmh 30.27 in1025.1 mb 0.00 in0.0 mm 0.00 in0.0 mm 0.01 in0.3 mm
01:25 PM 64.8°F18.2°C 38.3°F3.5°C 38% 5.0 mph S8.0 kmh S 8.3 mph13.4 kmh 30.27 in1025.1 mb 0.00 in0.0 mm 0.00 in0.0 mm 0.01 in0.3 mm
01:30 PM 64.5°F18.1°C 38.8°F3.8°C 39% 5.3 mph S8.5 kmh S 9.2 mph14.8 kmh 30.27 in1025.1 mb 0.00 in0.0 mm 0.00 in0.0 mm 0.01 in0.3 mm
01:35 PM 64.4°F18.0°C 38.8°F3.8°C 39% 6.3 mph S10.1 kmh S 9.8 mph15.8 kmh 30.27 in1025.1 mb 0.00 in0.0 mm 0.00 in0.0 mm 0.01 in0.3 mm
01:40 PM 64.5°F18.1°C 39.7°F4.3°C 40% 6.6 mph S10.6 kmh S 9.8 mph15.8 kmh 30.27 in1025.1 mb 0.00 in0.0 mm 0.00 in0.0 mm 0.01 in0.3 mm
01:45 PM 64.7°F18.2°C 39.8°F4.3°C 40% 5.1 mph S8.2 kmh S 8.3 mph13.4 kmh 30.26 in1024.7 mb 0.00 in0.0 mm 0.00 in0.0 mm 0.01 in0.3 mm
01:50 PM 64.7°F18.2°C 39.2°F4.0°C 39% 5.3 mph S8.5 kmh S 8.3 mph13.4 kmh 30.26 in1024.7 mb 0.00 in0.0 mm 0.00 in0.0 mm 0.01 in0.3 mm
01:55 PM 64.6°F18.1°C 38.3°F3.5°C 38% 3.1 mph SW5.0 kmh SW 5.4 mph8.7 kmh 30.26 in1024.7 mb 0.00 in0.0 mm 0.00 in0.0 mm 0.01 in0.3 mm
02:00 PM 64.8°F18.2°C 40.3°F4.6°C 41% 3.8 mph SE6.1 kmh SE 6.0 mph9.7 kmh 30.26 in1024.7 mb 0.00 in0.0 mm 0.00 in0.0 mm 0.01 in0.3 mm
02:05 PM 64.8°F18.2°C 39.7°F4.3°C 40% 2.7 mph SSE4.3 kmh SSE 4.5 mph7.2 kmh 30.25 in1024.4 mb 0.00 in0.0 mm 0.00 in0.0 mm 0.01 in0.3 mm
02:10 PM 64.8°F18.2°C 39.9°F4.4°C 40% 4.4 mph SW7.1 kmh SW 6.9 mph11.1 kmh 30.25 in1024.4 mb 0.00 in0.0 mm 0.00 in0.0 mm 0.01 in0.3 mm
02:15 PM 64.9°F18.3°C 40.0°F4.4°C 40% 4.9 mph S7.9 kmh S 8.3 mph13.4 kmh 30.25 in1024.4 mb 0.00 in0.0 mm 0.00 in0.0 mm 0.01 in0.3 mm
02:20 PM 64.7°F18.2°C 39.7°F4.3°C 40% 3.9 mph WSW6.3 kmh WSW 6.0 mph9.7 kmh 30.25 in1024.4 mb 0.00 in0.0 mm 0.00 in0.0 mm 0.01 in0.3 mm
02:25 PM 64.8°F18.2°C 39.8°F4.3°C 40% 3.2 mph WSW5.1 kmh WSW 4.5 mph7.2 kmh 30.25 in1024.4 mb 0.00 in0.0 mm 0.00 in0.0 mm 0.01 in0.3 mm
02:30 PM 64.9°F18.3°C 39.8°F4.3°C 40% 5.8 mph SSW9.3 kmh SSW 8.3 mph13.4 kmh 30.25 in1024.4 mb 0.00 in0.0 mm 0.00 in0.0 mm 0.01 in0.3 mm
02:35 PM 64.9°F18.3°C 40.0°F4.4°C 40% 5.5 mph S8.9 kmh S 9.2 mph14.8 kmh 30.25 in1024.4 mb 0.00 in0.0 mm 0.00 in0.0 mm 0.01 in0.3 mm
02:40 PM 64.9°F18.3°C 40.1°F4.5°C 40% 4.2 mph SSW6.8 kmh SSW 8.3 mph13.4 kmh 30.24 in1024.0 mb 0.00 in0.0 mm 0.00 in0.0 mm 0.01 in0.3 mm
02:45 PM 64.8°F18.2°C 40.1°F4.5°C 40% 5.1 mph SSE8.2 kmh SSE 6.9 mph11.1 kmh 30.24 in1024.0 mb 0.00 in0.0 mm 0.00 in0.0 mm 0.01 in0.3 mm
02:50 PM 64.7°F18.2°C 39.8°F4.3°C 40% 6.9 mph S11.1 kmh S 9.8 mph15.8 kmh 30.24 in1024.0 mb 0.00 in0.0 mm 0.00 in0.0 mm 0.01 in0.3 mm
02:55 PM 64.5°F18.1°C 39.6°F4.2°C 40% 5.6 mph SSW9.0 kmh SSW 8.3 mph13.4 kmh 30.24 in1024.0 mb 0.00 in0.0 mm 0.00 in0.0 mm 0.01 in0.3 mm
03:00 PM 64.4°F18.0°C 39.5°F4.2°C 40% 6.1 mph S9.8 kmh S 9.8 mph15.8 kmh 30.24 in1024.0 mb 0.00 in0.0 mm 0.00 in0.0 mm 0.01 in0.3 mm
03:05 PM 64.4°F18.0°C 39.5°F4.2°C 40% 8.3 mph S13.4 kmh S 9.8 mph15.8 kmh 30.24 in1024.0 mb 0.00 in0.0 mm 0.00 in0.0 mm 0.01 in0.3 mm
03:10 PM 64.1°F17.8°C 39.3°F4.1°C 40% 8.2 mph S13.2 kmh S 11.4 mph18.3 kmh 30.24 in1024.0 mb 0.00 in0.0 mm 0.00 in0.0 mm 0.01 in0.3 mm
03:15 PM 64.0°F17.8°C 39.2°F4.0°C 40% 8.6 mph S13.8 kmh S 11.4 mph18.3 kmh 30.23 in1023.7 mb 0.00 in0.0 mm 0.00 in0.0 mm 0.01 in0.3 mm
03:20 PM 63.9°F17.7°C 39.1°F3.9°C 40% 8.0 mph S12.9 kmh S 10.7 mph17.2 kmh 30.23 in1023.7 mb 0.00 in0.0 mm 0.00 in0.0 mm 0.01 in0.3 mm
03:25 PM 63.8°F17.7°C 39.3°F4.1°C 40% 6.0 mph S9.7 kmh S 9.8 mph15.8 kmh 30.23 in1023.7 mb 0.00 in0.0 mm 0.00 in0.0 mm 0.01 in0.3 mm
03:30 PM 63.7°F17.6°C 40.8°F4.9°C 43% 8.1 mph S13.0 kmh S 12.1 mph19.5 kmh 30.23 in1023.7 mb 0.00 in0.0 mm 0.00 in0.0 mm 0.01 in0.3 mm
03:35 PM 63.5°F17.5°C 40.5°F4.7°C 43% 7.2 mph S11.6 kmh S 10.7 mph17.2 kmh 30.23 in1023.7 mb 0.00 in0.0 mm 0.00 in0.0 mm 0.01 in0.3 mm
03:40 PM 63.5°F17.5°C 40.0°F4.4°C 42% 8.1 mph S13.0 kmh S 11.4 mph18.3 kmh 30.23 in1023.7 mb 0.00 in0.0 mm 0.00 in0.0 mm 0.01 in0.3 mm
03:45 PM 63.5°F17.5°C 40.0°F4.4°C 42% 8.9 mph SSW14.3 kmh SSW 11.4 mph18.3 kmh 30.22 in1023.4 mb 0.00 in0.0 mm 0.00 in0.0 mm 0.01 in0.3 mm
03:50 PM 63.3°F17.4°C 40.4°F4.7°C 43% 6.6 mph S10.6 kmh S 10.7 mph17.2 kmh 30.23 in1023.7 mb 0.00 in0.0 mm 0.00 in0.0 mm 0.01 in0.3 mm
03:55 PM 63.3°F17.4°C 40.5°F4.7°C 43% 6.4 mph SSW10.3 kmh SSW 9.8 mph15.8 kmh 30.22 in1023.4 mb 0.00 in0.0 mm 0.00 in0.0 mm 0.01 in0.3 mm
04:00 PM 63.1°F17.3°C 40.3°F4.6°C 43% 7.6 mph SSW12.2 kmh SSW 9.8 mph15.8 kmh 30.22 in1023.4 mb 0.00 in0.0 mm 0.00 in0.0 mm 0.01 in0.3 mm
04:05 PM 63.1°F17.3°C 40.9°F4.9°C 44% 3.8 mph S6.1 kmh S 5.4 mph8.7 kmh 30.22 in1023.4 mb 0.00 in0.0 mm 0.00 in0.0 mm 0.01 in0.3 mm
04:10 PM 62.9°F17.2°C 40.4°F4.7°C 44% 5.8 mph S9.3 kmh S 9.2 mph14.8 kmh 30.22 in1023.4 mb 0.00 in0.0 mm 0.00 in0.0 mm 0.01 in0.3 mm
04:15 PM 62.8°F17.1°C 40.3°F4.6°C 44% 7.3 mph S11.7 kmh S 13.0 mph20.9 kmh 30.22 in1023.4 mb 0.00 in0.0 mm 0.00 in0.0 mm 0.01 in0.3 mm
04:20 PM 62.7°F17.1°C 40.5°F4.7°C 44% 6.3 mph SSW10.1 kmh SSW 10.7 mph17.2 kmh 30.22 in1023.4 mb 0.00 in0.0 mm 0.00 in0.0 mm 0.01 in0.3 mm
04:25 PM 62.6°F17.0°C 40.4°F4.7°C 44% 6.9 mph SSW11.1 kmh SSW 11.4 mph18.3 kmh 30.21 in1023.0 mb 0.00 in0.0 mm 0.00 in0.0 mm 0.01 in0.3 mm
04:30 PM 62.4°F16.9°C 40.2°F4.6°C 44% 6.2 mph S10.0 kmh S 9.2 mph14.8 kmh 30.21 in1023.0 mb 0.00 in0.0 mm 0.00 in0.0 mm 0.01 in0.3 mm
04:35 PM 62.2°F16.8°C 40.2°F4.6°C 44% 4.9 mph SSW7.9 kmh SSW 8.3 mph13.4 kmh 30.21 in1023.0 mb 0.00 in0.0 mm 0.00 in0.0 mm 0.01 in0.3 mm
04:40 PM 62.1°F16.7°C 40.5°F4.7°C 45% 5.5 mph SSW8.9 kmh SSW 7.6 mph12.2 kmh 30.21 in1023.0 mb 0.00 in0.0 mm 0.00 in0.0 mm 0.01 in0.3 mm
04:45 PM 61.9°F16.6°C 40.3°F4.6°C 45% 5.0 mph S8.0 kmh S 7.6 mph12.2 kmh 30.21 in1023.0 mb 0.00 in0.0 mm 0.00 in0.0 mm 0.01 in0.3 mm
04:50 PM 61.6°F16.4°C 40.7°F4.8°C 46% 4.1 mph SW6.6 kmh SW 6.0 mph9.7 kmh 30.21 in1023.0 mb 0.00 in0.0 mm 0.00 in0.0 mm 0.01 in0.3 mm
04:55 PM 61.4°F16.3°C 40.4°F4.7°C 46% 3.3 mph SW5.3 kmh SW 5.4 mph8.7 kmh 30.21 in1023.0 mb 0.00 in0.0 mm 0.00 in0.0 mm 0.01 in0.3 mm
05:00 PM 61.1°F16.2°C 40.4°F4.7°C 46% 2.0 mph SSW3.2 kmh SSW 3.8 mph6.1 kmh 30.21 in1023.0 mb 0.00 in0.0 mm 0.00 in0.0 mm 0.01 in0.3 mm
05:05 PM 61.0°F16.1°C 40.6°F4.8°C 47% 2.2 mph SW3.5 kmh SW 2.2 mph3.5 kmh 30.21 in1023.0 mb 0.00 in0.0 mm 0.00 in0.0 mm 0.01 in0.3 mm
05:10 PM 60.8°F16.0°C 41.1°F5.1°C 48% 1.6 mph SW2.6 kmh SW 2.2 mph3.5 kmh 30.22 in1023.4 mb 0.00 in0.0 mm 0.00 in0.0 mm 0.01 in0.3 mm
05:15 PM 60.1°F15.6°C 41.6°F5.3°C 50% 0.7 mph SSE1.1 kmh SSE 3.8 mph6.1 kmh 30.22 in1023.4 mb 0.00 in0.0 mm 0.00 in0.0 mm 0.01 in0.3 mm
05:20 PM 59.7°F15.4°C 41.5°F5.3°C 51% 0.5 mph E0.8 kmh E 1.6 mph2.6 kmh 30.22 in1023.4 mb 0.00 in0.0 mm 0.00 in0.0 mm 0.01 in0.3 mm
05:25 PM 59.2°F15.1°C 41.6°F5.3°C 52% 0.6 mph N1.0 kmh N 1.6 mph2.6 kmh 30.22 in1023.4 mb 0.00 in0.0 mm 0.00 in0.0 mm 0.01 in0.3 mm
05:30 PM 58.8°F14.9°C 41.5°F5.3°C 53% 0.6 mph NE1.0 kmh NE 2.2 mph3.5 kmh 30.22 in1023.4 mb 0.00 in0.0 mm 0.00 in0.0 mm 0.01 in0.3 mm
05:35 PM 58.2°F14.6°C 41.4°F5.2°C 53% 1.4 mph NNE2.3 kmh NNE 2.2 mph3.5 kmh 30.22 in1023.4 mb 0.00 in0.0 mm 0.00 in0.0 mm 0.01 in0.3 mm
05:40 PM 57.7°F14.3°C 41.3°F5.2°C 54% 0.8 mph N1.3 kmh N 2.2 mph3.5 kmh 30.22 in1023.4 mb 0.00 in0.0 mm 0.00 in0.0 mm 0.01 in0.3 mm
05:45 PM 57.0°F13.9°C 41.4°F5.2°C 56% 0.3 mph E0.5 kmh E 1.6 mph2.6 kmh 30.22 in1023.4 mb 0.00 in0.0 mm 0.00 in0.0 mm 0.01 in0.3 mm
05:50 PM 56.4°F13.6°C 42.0°F5.6°C 58% 0.6 mph NE1.0 kmh NE 2.2 mph3.5 kmh 30.22 in1023.4 mb 0.00 in0.0 mm 0.00 in0.0 mm 0.01 in0.3 mm
05:55 PM 55.7°F13.2°C 42.0°F5.6°C 60% 1.9 mph NE3.1 kmh NE 3.8 mph6.1 kmh 30.22 in1023.4 mb 0.00 in0.0 mm 0.00 in0.0 mm 0.01 in0.3 mm
06:00 PM 54.9°F12.7°C 42.0°F5.6°C 62% 1.7 mph ENE2.7 kmh ENE 3.1 mph5.0 kmh 30.23 in1023.7 mb 0.00 in0.0 mm 0.00 in0.0 mm 0.01 in0.3 mm
06:05 PM 54.0°F12.2°C 42.2°F5.7°C 64% 1.9 mph N3.1 kmh N 3.8 mph6.1 kmh 30.23 in1023.7 mb 0.00 in0.0 mm 0.00 in0.0 mm 0.01 in0.3 mm
06:10 PM 52.9°F11.6°C 41.9°F5.5°C 66% 3.5 mph NNE5.6 kmh NNE 5.4 mph8.7 kmh 30.23 in1023.7 mb 0.00 in0.0 mm 0.00 in0.0 mm 0.01 in0.3 mm
06:15 PM 52.1°F11.2°C 42.1°F5.6°C 69% 3.4 mph NE5.5 kmh NE 4.5 mph7.2 kmh 30.23 in1023.7 mb 0.00 in0.0 mm 0.00 in0.0 mm 0.01 in0.3 mm
06:20 PM 51.2°F10.7°C 41.8°F5.4°C 70% 2.8 mph NNE4.5 kmh NNE 4.5 mph7.2 kmh 30.23 in1023.7 mb 0.00 in0.0 mm 0.00 in0.0 mm 0.01 in0.3 mm
06:25 PM 50.6°F10.3°C 41.5°F5.3°C 71% 2.3 mph NNE3.7 kmh NNE 3.8 mph6.1 kmh 30.24 in1024.0 mb 0.00 in0.0 mm 0.00 in0.0 mm 0.01 in0.3 mm
06:30 PM 49.9°F9.9°C 41.2°F5.1°C 72% 2.6 mph NE4.2 kmh NE 3.8 mph6.1 kmh 30.24 in1024.0 mb 0.00 in0.0 mm 0.00 in0.0 mm 0.01 in0.3 mm
06:35 PM 49.5°F9.7°C 41.0°F5.0°C 73% 2.7 mph N4.3 kmh N 3.8 mph6.1 kmh 30.24 in1024.0 mb 0.00 in0.0 mm 0.00 in0.0 mm 0.01 in0.3 mm
06:40 PM 49.0°F9.4°C 40.8°F4.9°C 73% 2.1 mph NE3.4 kmh NE 4.5 mph7.2 kmh 30.24 in1024.0 mb 0.00 in0.0 mm 0.00 in0.0 mm 0.01 in0.3 mm
06:45 PM 48.5°F9.2°C 40.7°F4.8°C 74% 3.2 mph N5.1 kmh N 4.5 mph7.2 kmh 30.24 in1024.0 mb 0.00 in0.0 mm 0.00 in0.0 mm 0.01 in0.3 mm
06:50 PM 48.2°F9.0°C 40.8°F4.9°C 75% 2.7 mph NE4.3 kmh NE 3.8 mph6.1 kmh 30.24 in1024.0 mb 0.00 in0.0 mm 0.00 in0.0 mm 0.01 in0.3 mm
06:55 PM 47.9°F8.8°C 40.7°F4.8°C 76% 2.2 mph NE3.5 kmh NE 3.8 mph6.1 kmh 30.24 in1024.0 mb 0.00 in0.0 mm 0.00 in0.0 mm 0.01 in0.3 mm
07:00 PM 47.5°F8.6°C 40.3°F4.6°C 76% 2.2 mph NNE3.5 kmh NNE 3.8 mph6.1 kmh 30.24 in1024.0 mb 0.00 in0.0 mm 0.00 in0.0 mm 0.01 in0.3 mm
07:05 PM 47.3°F8.5°C 40.1°F4.5°C 76% 1.6 mph NE2.6 kmh NE 2.2 mph3.5 kmh 30.25 in1024.4 mb 0.00 in0.0 mm 0.00 in0.0 mm 0.01 in0.3 mm
07:10 PM 47.0°F8.3°C 40.2°F4.6°C 77% 2.7 mph NE4.3 kmh NE 4.5 mph7.2 kmh 30.25 in1024.4 mb 0.00 in0.0 mm 0.00 in0.0 mm 0.01 in0.3 mm
07:15 PM 46.7°F8.2°C 40.3°F4.6°C 78% 3.5 mph NE5.6 kmh NE 5.4 mph8.7 kmh 30.25 in1024.4 mb 0.00 in0.0 mm 0.00 in0.0 mm 0.01 in0.3 mm
07:20 PM 46.3°F7.9°C 40.2°F4.6°C 79% 3.6 mph NE5.8 kmh NE 4.5 mph7.2 kmh 30.25 in1024.4 mb 0.00 in0.0 mm 0.00 in0.0 mm 0.01 in0.3 mm
07:25 PM 46.1°F7.8°C 40.3°F4.6°C 80% 3.7 mph NE6.0 kmh NE 4.5 mph7.2 kmh 30.24 in1024.0 mb 0.00 in0.0 mm 0.00 in0.0 mm 0.01 in0.3 mm
07:30 PM 45.8°F7.7°C 40.6°F4.8°C 82% 3.2 mph NE5.1 kmh NE 4.5 mph7.2 kmh 30.24 in1024.0 mb 0.00 in0.0 mm 0.00 in0.0 mm 0.01 in0.3 mm
07:35 PM 45.6°F7.6°C 41.3°F5.2°C 85% 3.2 mph E5.1 kmh E 4.5 mph7.2 kmh 30.25 in1024.4 mb 0.00 in0.0 mm 0.00 in0.0 mm 0.01 in0.3 mm
07:40 PM 45.4°F7.4°C 41.4°F5.2°C 86% 3.3 mph ENE5.3 kmh ENE 4.5 mph7.2 kmh 30.25 in1024.4 mb 0.00 in0.0 mm 0.00 in0.0 mm 0.01 in0.3 mm
07:45 PM 45.2°F7.3°C 41.2°F5.1°C 86% 4.0 mph ENE6.4 kmh ENE 5.4 mph8.7 kmh 30.25 in1024.4 mb 0.00 in0.0 mm 0.00 in0.0 mm 0.01 in0.3 mm
07:50 PM 45.0°F7.2°C 41.2°F5.1°C 87% 4.3 mph NE6.9 kmh NE 5.4 mph8.7 kmh 30.25 in1024.4 mb 0.00 in0.0 mm 0.00 in0.0 mm 0.01 in0.3 mm
07:55 PM 44.9°F7.2°C 41.2°F5.1°C 87% 3.6 mph NE5.8 kmh NE 5.4 mph8.7 kmh 30.25 in1024.4 mb 0.00 in0.0 mm 0.00 in0.0 mm 0.01 in0.3 mm
08:00 PM 44.7°F7.1°C 41.0°F5.0°C 87% 3.3 mph ENE5.3 kmh ENE 4.5 mph7.2 kmh 30.25 in1024.4 mb 0.00 in0.0 mm 0.00 in0.0 mm 0.01 in0.3 mm
08:05 PM 44.4°F6.9°C 41.0°F5.0°C 88% 3.5 mph NE5.6 kmh NE 5.4 mph8.7 kmh 30.25 in1024.4 mb 0.00 in0.0 mm 0.00 in0.0 mm 0.01 in0.3 mm
08:10 PM 44.2°F6.8°C 40.9°F4.9°C 88% 3.8 mph NE6.1 kmh NE 5.4 mph8.7 kmh 30.25 in1024.4 mb 0.00 in0.0 mm 0.00 in0.0 mm 0.01 in0.3 mm
08:15 PM 44.0°F6.7°C 40.7°F4.8°C 88% 1.6 mph NE2.6 kmh NE 3.1 mph5.0 kmh 30.25 in1024.4 mb 0.00 in0.0 mm 0.00 in0.0 mm 0.01 in0.3 mm
08:20 PM 43.9°F6.6°C 40.5°F4.7°C 88% 2.7 mph NE4.3 kmh NE 4.5 mph7.2 kmh 30.25 in1024.4 mb 0.00 in0.0 mm 0.00 in0.0 mm 0.01 in0.3 mm
08:25 PM 43.7°F6.5°C 40.4°F4.7°C 88% 3.8 mph NE6.1 kmh NE 4.5 mph7.2 kmh 30.25 in1024.4 mb 0.00 in0.0 mm 0.00 in0.0 mm 0.01 in0.3 mm
08:30 PM 43.6°F6.4°C 40.3°F4.6°C 88% 3.3 mph ENE5.3 kmh ENE 5.4 mph8.7 kmh 30.25 in1024.4 mb 0.00 in0.0 mm 0.00 in0.0 mm 0.01 in0.3 mm
08:35 PM 43.4°F6.3°C 40.2°F4.6°C 88% 4.1 mph NE6.6 kmh NE 5.4 mph8.7 kmh 30.25 in1024.4 mb 0.00 in0.0 mm 0.00 in0.0 mm 0.01 in0.3 mm
08:40 PM 43.3°F6.3°C 40.3°F4.6°C 89% 2.6 mph ENE4.2 kmh ENE 5.4 mph8.7 kmh 30.26 in1024.7 mb 0.00 in0.0 mm 0.00 in0.0 mm 0.01 in0.3 mm
08:45 PM 43.2°F6.2°C 40.2°F4.6°C 89% 2.5 mph NE4.0 kmh NE 3.8 mph6.1 kmh 30.25 in1024.4 mb 0.00 in0.0 mm 0.00 in0.0 mm 0.01 in0.3 mm
08:50 PM 43.2°F6.2°C 40.4°F4.7°C 90% 2.2 mph ENE3.5 kmh ENE 3.1 mph5.0 kmh 30.26 in1024.7 mb 0.00 in0.0 mm 0.00 in0.0 mm 0.01 in0.3 mm
08:55 PM 43.2°F6.2°C 40.4°F4.7°C 90% 2.9 mph NE4.7 kmh NE 4.5 mph7.2 kmh 30.26 in1024.7 mb 0.00 in0.0 mm 0.00 in0.0 mm 0.01 in0.3 mm
09:00 PM 43.0°F6.1°C 40.3°F4.6°C 90% 3.5 mph NE5.6 kmh NE 4.5 mph7.2 kmh 30.26 in1024.7 mb 0.00 in0.0 mm 0.00 in0.0 mm 0.01 in0.3 mm
09:05 PM 43.0°F6.1°C 40.3°F4.6°C 90% 3.8 mph NE6.1 kmh NE 4.5 mph7.2 kmh 30.26 in1024.7 mb 0.00 in0.0 mm 0.00 in0.0 mm 0.01 in0.3 mm
09:10 PM 42.8°F6.0°C 40.1°F4.5°C 90% 2.6 mph NE4.2 kmh NE 4.5 mph7.2 kmh 30.26 in1024.7 mb 0.00 in0.0 mm 0.00 in0.0 mm 0.01 in0.3 mm
09:15 PM 42.6°F5.9°C 39.9°F4.4°C 90% 0.8 mph NNE1.3 kmh NNE 2.2 mph3.5 kmh 30.26 in1024.7 mb 0.00 in0.0 mm 0.00 in0.0 mm 0.01 in0.3 mm
09:20 PM 42.6°F5.9°C 39.9°F4.4°C 90% 1.6 mph NNE2.6 kmh NNE 2.2 mph3.5 kmh 30.26 in1024.7 mb 0.00 in0.0 mm 0.00 in0.0 mm 0.01 in0.3 mm
09:25 PM 42.6°F5.9°C 39.9°F4.4°C 90% 2.3 mph NE3.7 kmh NE 4.5 mph7.2 kmh 30.26 in1024.7 mb 0.00 in0.0 mm 0.00 in0.0 mm 0.01 in0.3 mm
09:30 PM 42.4°F5.8°C 39.7°F4.3°C 90% 2.4 mph NE3.9 kmh NE 3.8 mph6.1 kmh 30.26 in1024.7 mb 0.00 in0.0 mm 0.00 in0.0 mm 0.01 in0.3 mm
09:35 PM 42.4°F5.8°C 39.7°F4.3°C 90% 1.2 mph NE1.9 kmh NE 2.2 mph3.5 kmh 30.26 in1024.7 mb 0.00 in0.0 mm 0.00 in0.0 mm 0.01 in0.3 mm
09:40 PM 42.3°F5.7°C 39.5°F4.2°C 90% 1.0 mph NE1.6 kmh NE 3.1 mph5.0 kmh 30.26 in1024.7 mb 0.00 in0.0 mm 0.00 in0.0 mm 0.01 in0.3 mm
09:45 PM 42.3°F5.7°C 39.5°F4.2°C 90% 2.5 mph NE4.0 kmh NE 3.1 mph5.0 kmh 30.26 in1024.7 mb 0.00 in0.0 mm 0.00 in0.0 mm 0.01 in0.3 mm
09:50 PM 42.1°F5.6°C 39.4°F4.1°C 90% 2.6 mph NE4.2 kmh NE 3.8 mph6.1 kmh 30.26 in1024.7 mb 0.00 in0.0 mm 0.00 in0.0 mm 0.01 in0.3 mm
09:55 PM 42.1°F5.6°C 39.4°F4.1°C 90% 1.9 mph NE3.1 kmh NE 3.1 mph5.0 kmh 30.26 in1024.7 mb 0.00 in0.0 mm 0.00 in0.0 mm 0.01 in0.3 mm
10:00 PM 42.0°F5.6°C 39.3°F4.1°C 90% 1.6 mph NNE2.6 kmh NNE 2.2 mph3.5 kmh 30.26 in1024.7 mb 0.00 in0.0 mm 0.00 in0.0 mm 0.01 in0.3 mm
10:05 PM 41.9°F5.5°C 39.5°F4.2°C 91% 1.3 mph N2.1 kmh N 2.2 mph3.5 kmh 30.26 in1024.7 mb 0.00 in0.0 mm 0.00 in0.0 mm 0.01 in0.3 mm
10:10 PM 41.8°F5.4°C 39.4°F4.1°C 91% 1.7 mph NNE2.7 kmh NNE 3.1 mph5.0 kmh 30.26 in1024.7 mb 0.00 in0.0 mm 0.00 in0.0 mm 0.01 in0.3 mm
10:15 PM 41.7°F5.4°C 39.3°F4.1°C 91% 1.6 mph NE2.6 kmh NE 2.2 mph3.5 kmh 30.26 in1024.7 mb 0.00 in0.0 mm 0.00 in0.0 mm 0.01 in0.3 mm
10:20 PM 41.7°F5.4°C 39.3°F4.1°C 91% 1.9 mph NE3.1 kmh NE 2.2 mph3.5 kmh 30.26 in1024.7 mb 0.00 in0.0 mm 0.00 in0.0 mm 0.01 in0.3 mm
10:25 PM 41.5°F5.3°C 39.1°F3.9°C 91% 1.6 mph NE2.6 kmh NE 2.2 mph3.5 kmh 30.26 in1024.7 mb 0.00 in0.0 mm 0.00 in0.0 mm 0.01 in0.3 mm
10:30 PM 41.4°F5.2°C 38.9°F3.8°C 91% 1.6 mph NE2.6 kmh NE 2.2 mph3.5 kmh 30.26 in1024.7 mb 0.00 in0.0 mm 0.00 in0.0 mm 0.01 in0.3 mm
10:35 PM 41.2°F5.1°C 38.6°F3.7°C 90% 1.7 mph NE2.7 kmh NE 3.1 mph5.0 kmh 30.25 in1024.4 mb 0.00 in0.0 mm 0.00 in0.0 mm 0.01 in0.3 mm
10:40 PM 41.0°F5.0°C 38.3°F3.5°C 90% 3.1 mph NE5.0 kmh NE 3.8 mph6.1 kmh 30.26 in1024.7 mb 0.00 in0.0 mm 0.00 in0.0 mm 0.01 in0.3 mm
10:45 PM 40.8°F4.9°C 38.1°F3.4°C 90% 2.4 mph NE3.9 kmh NE 3.8 mph6.1 kmh 30.26 in1024.7 mb 0.00 in0.0 mm 0.00 in0.0 mm 0.01 in0.3 mm
10:50 PM 40.8°F4.9°C 38.1°F3.4°C 90% 2.5 mph NE4.0 kmh NE 3.8 mph6.1 kmh 30.26 in1024.7 mb 0.00 in0.0 mm 0.00 in0.0 mm 0.01 in0.3 mm
10:55 PM 40.7°F4.8°C 38.0°F3.3°C 90% 3.4 mph NE5.5 kmh NE 4.5 mph7.2 kmh 30.25 in1024.4 mb 0.00 in0.0 mm 0.00 in0.0 mm 0.01 in0.3 mm
11:00 PM 40.6°F4.8°C 38.2°F3.4°C 91% 2.6 mph NE4.2 kmh NE 3.8 mph6.1 kmh 30.25 in1024.4 mb 0.00 in0.0 mm 0.00 in0.0 mm 0.01 in0.3 mm
11:05 PM 40.5°F4.7°C 38.0°F3.3°C 91% 2.2 mph NE3.5 kmh NE 3.1 mph5.0 kmh 30.25 in1024.4 mb 0.00 in0.0 mm 0.00 in0.0 mm 0.01 in0.3 mm
11:10 PM 40.4°F4.7°C 38.0°F3.3°C 91% 1.9 mph NE3.1 kmh NE 3.1 mph5.0 kmh 30.25 in1024.4 mb 0.00 in0.0 mm 0.00 in0.0 mm 0.01 in0.3 mm
11:15 PM 40.3°F4.6°C 37.8°F3.2°C 91% 1.6 mph NE2.6 kmh NE 2.2 mph3.5 kmh 30.25 in1024.4 mb 0.00 in0.0 mm 0.00 in0.0 mm 0.01 in0.3 mm
11:20 PM 40.1°F4.5°C 37.7°F3.2°C 91% 2.6 mph NE4.2 kmh NE 3.8 mph6.1 kmh 30.25 in1024.4 mb 0.00 in0.0 mm 0.00 in0.0 mm 0.01 in0.3 mm
11:25 PM 39.9°F4.4°C 37.5°F3.1°C 91% 2.7 mph NE4.3 kmh NE 4.5 mph7.2 kmh 30.26 in1024.7 mb 0.00 in0.0 mm 0.00 in0.0 mm 0.01 in0.3 mm
11:30 PM 39.7°F4.3°C 37.3°F2.9°C 91% 2.2 mph NE3.5 kmh NE 3.1 mph5.0 kmh 30.25 in1024.4 mb 0.00 in0.0 mm 0.00 in0.0 mm 0.01 in0.3 mm
11:35 PM 39.6°F4.2°C 37.2°F2.9°C 91% 2.1 mph NE3.4 kmh NE 3.8 mph6.1 kmh 30.25 in1024.4 mb 0.00 in0.0 mm 0.00 in0.0 mm 0.01 in0.3 mm
11:40 PM 39.6°F4.2°C 37.2°F2.9°C 91% 1.2 mph NNE1.9 kmh NNE 1.6 mph2.6 kmh 30.25 in1024.4 mb 0.00 in0.0 mm 0.00 in0.0 mm 0.01 in0.3 mm
11:45 PM 39.4°F4.1°C 37.0°F2.8°C 91% 1.6 mph NE2.6 kmh NE 2.2 mph3.5 kmh 30.25 in1024.4 mb 0.00 in0.0 mm 0.00 in0.0 mm 0.01 in0.3 mm
11:50 PM 39.4°F4.1°C 37.0°F2.8°C 91% 1.6 mph NE2.6 kmh NE 2.2 mph3.5 kmh 30.25 in1024.4 mb 0.00 in0.0 mm 0.00 in0.0 mm 0.01 in0.3 mm
11:55 PM 39.3°F4.1°C 36.8°F2.7°C 91% 2.2 mph NE3.5 kmh NE 3.1 mph5.0 kmh 30.25 in1024.4 mb 0.00 in0.0 mm 0.00 in0.0 mm 0.01 in0.3 mm